ΕΜΥ, Εθνική Μετεωρολογική Υπηρεσία - Δελτία Καιρού, Προγνώσεις

ΑΕΡΟΝΑΥΤΙΛΙΑ

GREEK AIRPORTS CODES

LGKV 181050Z 20010G20KT 9999 SCT030 20/08 Q1003=

EUROPEAN AIRPORTS CODES

LFPO 181100Z 03008KT 350V070 9999 BKN030 09/03 Q1022 NOSIG=